Time;durP1;ratioP1;P1;durP2;ratioP2;P2;SDS_P1;SDS_P2;PMS_P1;PMS_P2;Temp;Humidity;BMP_temperature;BMP_pressure;BME280_temperature;BME280_humidity;BME280_pressure;Samples;Min_cycle;Max_cycle;Signal;HPM_P1;HPM_P2
2023/01/24 00:01:32;;;;;;;19.00;7.80;;;;;;;2.69;95.67;103446.75;5013852;28;21018;-67
2023/01/24 00:03:59;;;;;;;18.50;7.67;;;;;;;2.72;95.45;103451.75;5014103;28;20479;-67
2023/01/24 00:06:25;;;;;;;24.10;9.40;;;;;;;2.56;93.51;103450.00;5014289;28;20458;-67
2023/01/24 00:08:53;;;;;;;23.10;7.60;;;;;;;2.51;93.93;103455.03;5014221;28;20444;-67
2023/01/24 00:11:20;;;;;;;21.30;7.87;;;;;;;2.53;93.83;103450.38;5013760;28;20896;-67
2023/01/24 00:13:46;;;;;;;14.93;6.23;;;;;;;2.46;93.61;103447.56;5014186;28;20527;-67
2023/01/24 00:16:16;;;;;;;17.63;6.73;;;;;;;2.48;93.79;103455.41;5014138;28;20446;-67
2023/01/24 00:18:43;;;;;;;20.90;8.03;;;;;;;2.39;94.30;103454.63;5014324;28;20443;-68
2023/01/24 00:21:12;;;;;;;17.77;8.30;;;;;;;2.36;94.09;103459.50;5013860;28;20539;-68
2023/01/24 00:23:40;;;;;;;16.60;6.90;;;;;;;2.32;93.60;103456.31;5013763;28;20537;-68
2023/01/24 00:26:06;;;;;;;18.43;7.17;;;;;;;2.28;93.44;103461.19;5013777;28;20531;-67
2023/01/24 00:28:34;;;;;;;18.40;8.00;;;;;;;2.27;94.27;103448.00;5013778;28;20483;-68
2023/01/24 00:31:00;;;;;;;17.20;8.17;;;;;;;2.22;94.20;103451.19;5013670;28;20470;-68
2023/01/24 00:33:28;;;;;;;21.00;6.57;;;;;;;2.12;94.27;103447.88;5013707;28;20444;-67
2023/01/24 00:35:55;;;;;;;19.07;7.87;;;;;;;2.22;94.88;103450.38;5013360;28;20992;-67
2023/01/24 00:38:22;;;;;;;14.70;7.53;;;;;;;2.23;95.31;103452.84;5013625;28;20462;-68
2023/01/24 00:40:49;;;;;;;16.37;8.27;;;;;;;2.23;95.43;103452.03;5013554;28;20487;-68
2023/01/24 00:43:16;;;;;;;16.43;7.83;;;;;;;2.26;95.54;103444.50;5013510;28;20510;-68
2023/01/24 00:45:45;;;;;;;20.60;8.00;;;;;;;2.21;94.55;103449.53;5013248;28;21017;-68
2023/01/24 00:48:12;;;;;;;22.63;9.27;;;;;;;2.30;94.45;103450.31;5013136;28;20549;-68
2023/01/24 00:50:40;;;;;;;25.47;8.67;;;;;;;2.27;94.13;103442.66;5013420;28;20552;-67
2023/01/24 00:53:06;;;;;;;20.00;7.80;;;;;;;2.27;94.69;103442.66;5013486;28;20440;-68
2023/01/24 00:55:33;;;;;;;22.43;8.13;;;;;;;2.22;95.29;103443.16;5013375;28;20435;-68
2023/01/24 00:57:59;;;;;;;19.97;9.10;;;;;;;2.32;94.49;103439.44;5013440;28;20874;-68
2023/01/24 01:00:26;;;;;;;13.30;6.97;;;;;;;2.36;94.37;103441.59;5013285;28;20464;-68
2023/01/24 01:02:53;;;;;;;21.13;9.33;;;;;;;2.35;94.14;103439.94;5012954;28;20491;-68
2023/01/24 01:05:20;;;;;;;30.20;9.60;;;;;;;2.36;94.18;103446.94;5013305;28;20454;-68
2023/01/24 01:07:47;;;;;;;20.97;7.93;;;;;;;2.34;94.11;103440.09;5013303;28;20535;-68
2023/01/24 01:10:14;;;;;;;18.53;7.70;;;;;;;2.34;93.66;103448.13;5013218;28;20487;-67
2023/01/24 01:12:41;;;;;;;17.70;8.07;;;;;;;2.30;93.42;103442.28;5013256;28;20817;-68
2023/01/24 01:15:08;;;;;;;20.77;8.10;;;;;;;2.26;94.73;103449.84;5013301;28;20443;-68
2023/01/24 01:17:35;;;;;;;23.73;8.30;;;;;;;2.28;95.78;103449.66;5013200;28;20444;-68
2023/01/24 01:20:02;;;;;;;22.57;8.60;;;;;;;2.38;95.71;103454.78;5012919;28;20535;-68
2023/01/24 01:22:29;;;;;;;16.60;7.40;;;;;;;2.36;95.98;103448.78;5013120;28;20840;-68
2023/01/24 01:24:57;;;;;;;17.03;8.10;;;;;;;2.30;96.21;103452.16;5013067;28;20484;-68
2023/01/24 01:27:24;;;;;;;17.20;6.43;;;;;;;2.34;96.09;103454.28;5012861;28;20997;-68
2023/01/24 01:29:50;;;;;;;19.33;8.50;;;;;;;2.38;96.47;103460.13;5013129;28;20531;-68
2023/01/24 01:32:17;;;;;;;22.33;8.03;;;;;;;2.33;96.23;103462.50;5013029;28;20467;-68
2023/01/24 01:34:43;;;;;;;21.50;8.37;;;;;;;2.38;96.16;103462.81;5013056;28;20440;-68
2023/01/24 01:37:10;;;;;;;18.97;8.57;;;;;;;2.44;96.21;103462.13;5012757;28;20956;-68
2023/01/24 01:39:38;;;;;;;17.97;7.40;;;;;;;2.42;96.42;103458.78;5013344;28;20451;-69
2023/01/24 01:42:06;;;;;;;19.43;7.30;;;;;;;2.39;96.41;103464.47;5012927;28;20459;-69
2023/01/24 01:44:40;;;;;;;16.23;7.20;;;;;;;2.44;96.17;103462.97;5012919;28;20483;-68
2023/01/24 01:47:17;;;;;;;18.43;7.37;;;;;;;2.45;95.57;103469.13;5012977;28;20432;-69
2023/01/24 01:49:47;;;;;;;15.07;6.70;;;;;;;2.27;94.10;103462.19;5012976;28;20518;-69
2023/01/24 01:52:14;;;;;;;22.23;7.33;;;;;;;2.19;92.97;103472.94;5012837;28;20468;-68
2023/01/24 01:54:45;;;;;;;14.50;5.43;;;;;;;2.12;94.08;103473.78;5012589;28;20436;-68
2023/01/24 01:57:17;;;;;;;19.10;7.60;;;;;;;2.18;94.21;103471.25;5012587;28;20432;-68
2023/01/24 01:59:48;;;;;;;19.37;6.60;;;;;;;2.10;93.74;103462.44;5012916;28;20442;-68
2023/01/24 02:02:16;;;;;;;14.80;6.00;;;;;;;2.10;92.81;103468.63;5012527;28;21009;-68
2023/01/24 02:04:48;;;;;;;16.77;5.87;;;;;;;2.11;93.41;103469.44;5012719;28;20491;-68
2023/01/24 02:07:21;;;;;;;17.13;6.20;;;;;;;2.05;93.28;103465.63;5015763;28;20514;-68
2023/01/24 02:09:51;;;;;;;13.40;5.70;;;;;;;2.04;92.43;103466.66;5016623;28;20793;-68
2023/01/24 02:12:23;;;;;;;22.73;7.03;;;;;;;2.00;92.84;103468.81;5016118;28;20558;-68
2023/01/24 02:17:40;;;;;;;14.27;6.40;;;;;;;2.01;93.41;103469.66;5015949;28;20487;-68
2023/01/24 02:20:25;;;;;;;21.03;6.00;;;;;;;1.97;92.80;103463.81;5016049;28;20450;-68
2023/01/24 02:23:01;;;;;;;14.50;5.37;;;;;;;1.95;92.68;103467.69;5015785;28;20519;-68
2023/01/24 02:25:37;;;;;;;19.13;6.57;;;;;;;1.98;92.73;103467.31;5015989;28;20571;-68
2023/01/24 02:28:07;;;;;;;18.13;6.20;;;;;;;1.92;93.11;103470.69;5015743;28;21053;-68
2023/01/24 02:30:36;;;;;;;16.70;6.03;;;;;;;1.92;93.15;103476.03;5015833;28;20464;-68
2023/01/24 02:33:10;;;;;;;16.23;6.00;;;;;;;1.90;94.24;103470.00;5015583;28;20448;-68
2023/01/24 02:35:37;;;;;;;14.93;6.20;;;;;;;1.98;93.85;103473.50;5015567;28;20905;-68
2023/01/24 02:38:06;;;;;;;15.63;5.70;;;;;;;2.05;94.08;103475.50;5015797;28;20810;-68
2023/01/24 02:40:33;;;;;;;13.03;4.87;;;;;;;2.09;94.20;103474.97;5015630;28;20491;-68
2023/01/24 02:43:04;;;;;;;13.40;5.10;;;;;;;2.13;93.80;103467.44;5015705;28;20444;-68
2023/01/24 02:45:34;;;;;;;13.77;4.47;;;;;;;2.07;94.06;103476.97;5015608;28;20470;-68
2023/01/24 02:48:00;;;;;;;16.20;4.83;;;;;;;2.07;93.39;103471.63;5015425;28;20443;-68
2023/01/24 02:53:28;;;;;;;15.13;6.23;;;;;;;2.04;92.90;103458.63;5015454;28;20459;-68
2023/01/24 02:53:30;;;;;;;13.07;5.17;;;;;;;1.85;93.44;103461.69;5015245;28;20405;-68
2023/01/24 02:58:41;;;;;;;12.93;5.30;;;;;;;1.97;93.53;103460.31;5015186;28;20440;-68
2023/01/24 03:01:09;;;;;;;12.57;4.70;;;;;;;1.85;94.63;103459.00;5014976;28;20543;-68
2023/01/24 03:03:35;;;;;;;13.67;5.90;;;;;;;1.95;94.36;103465.84;5015242;28;20454;-68
2023/01/24 03:06:02;;;;;;;15.07;5.40;;;;;;;2.02;93.95;103466.81;5015237;28;20452;-68
2023/01/24 03:08:31;;;;;;;14.93;6.03;;;;;;;2.09;93.09;103474.97;5014942;28;20451;-68
2023/01/24 03:10:58;;;;;;;13.43;5.80;;;;;;;2.05;91.64;103475.50;5015178;28;20460;-68
2023/01/24 03:35:24;;;;;;;14.47;5.57;;;;;;;1.73;88.60;103467.41;5014482;28;20548;-68
2023/01/24 03:40:36;;;;;;;10.57;4.50;;;;;;;1.68;88.82;103459.06;5014304;28;20447;-68
2023/01/24 03:43:04;;;;;;;12.67;4.90;;;;;;;1.69;89.03;103454.56;5014557;28;20500;-68
2023/01/24 03:45:32;;;;;;;11.80;5.07;;;;;;;1.71;90.22;103460.53;5014421;28;20483;-68
2023/01/24 03:48:02;;;;;;;12.43;5.10;;;;;;;1.71;90.76;103464.06;5014496;28;20443;-68
2023/01/24 03:53:16;;;;;;;13.27;5.23;;;;;;;1.81;90.13;103457.69;5014231;28;20408;-68
2023/01/24 03:55:42;;;;;;;10.50;4.40;;;;;;;1.75;89.81;103454.69;5014318;28;20444;-67
2023/01/24 03:58:10;;;;;;;10.20;5.03;;;;;;;1.84;89.29;103463.53;5014335;28;20444;-68
2023/01/24 04:00:38;;;;;;;14.73;5.60;;;;;;;1.81;88.65;103457.69;5014182;28;20472;-68
2023/01/24 04:03:06;;;;;;;10.53;3.90;;;;;;;1.76;88.59;103466.22;5013795;28;20479;-68
2023/01/24 04:05:33;;;;;;;10.10;4.43;;;;;;;1.72;88.95;103455.03;5014012;28;20578;-68
2023/01/24 04:08:00;;;;;;;14.37;4.70;;;;;;;1.72;89.67;103457.69;5014125;28;20443;-68
2023/01/24 04:10:27;;;;;;;17.20;6.10;;;;;;;1.67;89.98;103451.22;5013766;28;21068;-68
2023/01/24 04:12:55;;;;;;;13.90;4.90;;;;;;;1.73;90.22;103445.19;5014114;28;20826;-68
2023/01/24 04:15:24;;;;;;;11.17;5.27;;;;;;;1.78;90.30;103448.19;5014036;28;20467;-68
2023/01/24 04:17:50;;;;;;;13.47;5.57;;;;;;;1.81;90.38;103453.16;5013954;28;20444;-68
2023/01/24 04:20:18;;;;;;;16.00;6.50;;;;;;;1.83;91.21;103459.19;5013858;28;20471;-68
2023/01/24 04:22:45;;;;;;;13.27;5.63;;;;;;;1.91;90.65;103461.00;5013885;28;20462;-68
2023/01/24 04:25:12;;;;;;;12.47;4.63;;;;;;;1.91;90.26;103469.84;5013417;28;21031;-68
2023/01/24 04:27:38;;;;;;;11.90;5.83;;;;;;;1.88;90.61;103464.03;5013521;28;20448;-68
2023/01/24 04:30:06;;;;;;;11.70;4.77;;;;;;;1.89;90.40;103465.69;5013162;28;20540;-68
2023/01/24 04:32:33;;;;;;;11.33;4.83;;;;;;;1.82;90.29;103470.06;5013694;28;20523;-68
2023/01/24 04:35:00;;;;;;;14.10;4.67;;;;;;;1.77;90.10;103460.72;5013731;28;20443;-68
2023/01/24 04:37:28;;;;;;;15.37;4.47;;;;;;;1.83;89.98;103461.03;5013636;28;20456;-68
2023/01/24 04:39:55;;;;;;;10.70;4.80;;;;;;;1.73;89.70;103456.72;5013615;28;20448;-68
2023/01/24 04:42:21;;;;;;;11.70;4.27;;;;;;;1.75;89.88;103454.69;5013489;28;20502;-68
2023/01/24 04:44:48;;;;;;;10.50;4.43;;;;;;;1.74;89.35;103450.34;5013494;28;20480;-68
2023/01/24 04:47:15;;;;;;;15.17;5.33;;;;;;;1.74;87.76;103450.34;5013170;28;21006;-68
2023/01/24 04:49:42;;;;;;;10.47;4.57;;;;;;;1.69;87.11;103452.72;5013499;28;20448;-68
2023/01/24 04:52:10;;;;;;;15.07;5.10;;;;;;;1.62;88.38;103446.38;5013644;28;20464;-68
2023/01/24 04:54:38;;;;;;;13.20;5.23;;;;;;;1.50;87.59;103463.75;5013567;28;20443;-67
2023/01/24 04:57:05;;;;;;;25.70;5.57;;;;;;;1.44;87.68;103461.78;5013514;28;20444;-68
2023/01/24 04:59:31;;;;;;;11.17;5.10;;;;;;;1.47;88.58;103454.25;5013036;28;20531;-68
2023/01/24 05:01:58;;;;;;;14.57;5.10;;;;;;;1.44;88.22;103453.75;5013009;28;20486;-68
2023/01/24 05:04:25;;;;;;;12.10;5.13;;;;;;;1.49;88.39;103448.75;5013251;28;20522;-68
2023/01/24 05:06:51;;;;;;;13.40;4.70;;;;;;;1.46;88.04;103444.59;5013035;28;20476;-69
2023/01/24 05:09:18;;;;;;;12.63;5.33;;;;;;;1.48;87.97;103444.41;5014685;28;20450;-67
2023/01/24 05:11:45;;;;;;;11.57;5.13;;;;;;;1.48;87.00;103442.56;5012909;28;20464;-68
2023/01/24 05:14:13;;;;;;;13.87;4.23;;;;;;;1.36;86.46;103448.41;5013281;28;20444;-68
2023/01/24 05:16:39;;;;;;;10.33;4.73;;;;;;;1.36;87.29;103448.41;5013240;28;20450;-68
2023/01/24 05:19:06;;;;;;;14.20;5.33;;;;;;;1.38;88.80;103457.13;5013203;28;20475;-67
2023/01/24 05:21:33;;;;;;;14.77;6.33;;;;;;;1.42;88.31;103458.44;5012825;28;20466;-67
2023/01/24 05:23:59;;;;;;;11.57;5.07;;;;;;;1.37;87.64;103466.09;5013229;28;20441;-68
2023/01/24 05:26:27;;;;;;;9.63;3.70;;;;;;;1.32;87.21;103455.94;5013069;28;20608;-67
2023/01/24 05:28:55;;;;;;;15.13;5.40;;;;;;;1.33;87.30;103452.28;5013144;28;20471;-67
2023/01/24 05:31:22;;;;;;;11.67;5.40;;;;;;;1.23;86.81;103455.09;5013057;28;20803;-67
2023/01/24 05:33:49;;;;;;;10.97;5.07;;;;;;;1.20;88.91;103454.63;5012977;28;20448;-67
2023/01/24 05:36:18;;;;;;;10.63;4.93;;;;;;;1.22;89.54;103457.94;5013080;28;20446;-69
2023/01/24 05:38:45;;;;;;;14.83;5.90;;;;;;;1.23;90.83;103454.25;5012863;28;20443;-69
2023/01/24 05:41:15;;;;;;;10.20;4.60;;;;;;;1.28;90.95;103449.25;5014153;28;20463;-68
2023/01/24 05:43:42;;;;;;;13.23;5.30;;;;;;;1.38;91.47;103460.63;5016705;28;20471;-69
2023/01/24 05:46:13;;;;;;;14.93;4.50;;;;;;;1.33;89.73;103465.63;5016097;28;20575;-68
2023/01/24 05:48:39;;;;;;;11.70;3.80;;;;;;;1.42;89.75;103463.78;5016458;28;20438;-69
2023/01/24 05:51:08;;;;;;;12.40;4.53;;;;;;;1.37;88.58;103471.44;5016365;28;20560;-68
2023/01/24 05:53:36;;;;;;;13.40;5.30;;;;;;;1.47;89.30;103482.81;5016283;28;20522;-68
2023/01/24 05:56:05;;;;;;;13.47;4.63;;;;;;;1.45;89.98;103479.44;5016436;28;20880;-68
2023/01/24 05:58:34;;;;;;;13.53;5.03;;;;;;;1.47;89.41;103483.63;5016433;28;20490;-68
2023/01/24 06:01:01;;;;;;;10.87;4.43;;;;;;;1.50;89.82;103482.44;5016372;28;20840;-68
2023/01/24 06:03:28;;;;;;;11.10;4.63;;;;;;;1.40;88.44;103487.13;5016054;28;20971;-68
2023/01/24 06:05:56;;;;;;;12.07;5.30;;;;;;;1.33;89.36;103486.13;5016356;28;20582;-68
2023/01/24 06:08:22;;;;;;;11.20;4.27;;;;;;;1.25;89.34;103489.66;5016359;28;20551;-68
2023/01/24 06:10:49;;;;;;;11.17;3.97;;;;;;;1.35;89.06;103489.47;5016249;28;20487;-68
2023/01/24 06:13:16;;;;;;;13.20;4.93;;;;;;;1.24;87.57;103491.50;5016315;28;20535;-68
2023/01/24 06:15:42;;;;;;;11.70;4.43;;;;;;;1.24;87.89;103488.81;5015899;28;20475;-68
2023/01/24 06:18:14;;;;;;;9.97;4.93;;;;;;;1.18;88.45;103497.47;5016167;28;20440;-68
2023/01/24 06:20:43;;;;;;;10.87;4.50;;;;;;;1.22;88.38;103490.81;5016116;28;20463;-68
2023/01/24 06:23:16;;;;;;;11.00;5.10;;;;;;;1.14;88.30;103492.66;5016025;28;20538;-68
2023/01/24 06:25:43;;;;;;;11.53;5.23;;;;;;;1.13;88.66;103502.50;5015705;28;20977;-68
2023/01/24 06:28:11;;;;;;;12.23;5.20;;;;;;;1.17;89.06;103503.81;5015991;28;20526;-68
2023/01/24 06:30:42;;;;;;;10.67;4.67;;;;;;;1.17;88.92;103503.81;5015538;28;20508;-67
2023/01/24 06:33:23;;;;;;;17.93;5.67;;;;;;;1.13;87.80;103513.16;5015951;28;20439;-68
2023/01/24 06:36:07;;;;;;;9.97;5.10;;;;;;;1.07;88.72;103500.50;5015885;28;20456;-68
2023/01/24 06:38:34;;;;;;;9.50;5.03;;;;;;;1.14;88.32;103514.81;5015795;28;20436;-68
2023/01/24 06:41:02;;;;;;;10.13;4.50;;;;;;;1.11;87.77;103509.84;5015719;28;20926;-68
2023/01/24 06:43:29;;;;;;;10.17;4.63;;;;;;;1.04;87.54;103514.16;5015699;28;20451;-68
2023/01/24 06:45:56;;;;;;;13.03;6.27;;;;;;;1.08;88.40;103523.50;5015536;28;20484;-68
2023/01/24 06:48:23;;;;;;;12.10;5.30;;;;;;;1.16;88.75;103512.84;5015630;28;20444;-68
2023/01/24 06:50:49;;;;;;;15.03;5.90;;;;;;;1.14;88.96;103519.34;5015327;28;20542;-68
2023/01/24 06:53:17;;;;;;;12.53;5.17;;;;;;;1.14;89.54;103520.16;5015235;28;20515;-68
2023/01/24 06:55:45;;;;;;;19.20;5.97;;;;;;;1.18;88.58;103521.50;5015231;28;20440;-68
2023/01/24 06:58:12;;;;;;;12.93;5.33;;;;;;;1.22;88.19;103522.00;5015420;28;20491;-68
2023/01/24 07:00:38;;;;;;;11.67;5.50;;;;;;;1.17;88.77;103519.84;5015248;28;20464;-69
2023/01/24 07:03:07;;;;;;;10.30;5.03;;;;;;;1.27;88.65;103525.84;5014962;28;20455;-68
2023/01/24 07:05:34;;;;;;;15.50;6.27;;;;;;;1.26;87.52;103523.34;5015210;28;20483;-68
2023/01/24 07:08:00;;;;;;;10.70;4.67;;;;;;;1.29;87.70;103536.38;5015190;28;20447;-68
2023/01/24 07:10:28;;;;;;;14.10;6.30;;;;;;;1.15;87.67;103534.34;5015092;28;20458;-69
2023/01/24 07:12:55;;;;;;;13.40;4.83;;;;;;;1.15;87.42;103537.88;5015128;28;20475;-69
2023/01/24 07:15:22;;;;;;;12.60;5.23;;;;;;;1.19;88.28;103549.88;5015054;28;20475;-69
2023/01/24 07:17:49;;;;;;;17.13;5.90;;;;;;;1.10;86.65;103550.84;5015077;28;20450;-70
2023/01/24 07:20:16;;;;;;;11.53;4.37;;;;;;;1.10;88.42;103550.84;5014929;28;20819;-70
2023/01/24 07:22:44;;;;;;;11.83;4.80;;;;;;;1.17;87.72;103549.22;5014891;28;20436;-70
2023/01/24 07:25:14;;;;;;;10.83;4.80;;;;;;;1.24;88.42;103550.22;5014868;28;20491;-70
2023/01/24 07:27:43;;;;;;;12.00;4.13;;;;;;;1.31;89.21;103553.06;5014925;28;20444;-67
2023/01/24 07:30:11;;;;;;;22.07;5.87;;;;;;;1.39;88.74;103553.06;5014761;28;20463;-67
2023/01/24 07:32:38;;;;;;;11.40;5.80;;;;;;;1.38;88.86;103554.06;5014428;28;20962;-68
2023/01/24 07:35:06;;;;;;;11.60;6.03;;;;;;;1.42;89.87;103551.91;5014729;28;20451;-68
2023/01/24 07:37:33;;;;;;;13.50;5.90;;;;;;;1.44;89.06;103553.41;5014693;28;20822;-68
2023/01/24 07:39:59;;;;;;;16.10;5.40;;;;;;;1.43;89.41;103553.56;5014370;28;20480;-69
2023/01/24 07:42:26;;;;;;;12.90;4.93;;;;;;;1.55;89.11;103552.25;5014525;28;20503;-67
2023/01/24 07:44:56;;;;;;;13.50;5.33;;;;;;;1.60;89.36;103549.91;5014436;28;20539;-67
2023/01/24 07:47:23;;;;;;;11.07;5.03;;;;;;;1.70;88.68;103542.53;5014472;28;20491;-67
2023/01/24 07:49:49;;;;;;;13.70;5.43;;;;;;;1.75;88.19;103550.06;5014163;28;20454;-67
2023/01/24 07:52:16;;;;;;;13.40;5.20;;;;;;;1.71;88.68;103556.72;5014353;28;20538;-67
2023/01/24 07:54:42;;;;;;;12.50;5.07;;;;;;;1.79;87.94;103548.72;5014108;28;20945;-67
2023/01/24 07:57:09;;;;;;;10.57;5.13;;;;;;;1.73;87.37;103552.91;5014395;28;20471;-67
2023/01/24 07:59:35;;;;;;;13.80;5.00;;;;;;;1.79;87.27;103561.25;5014318;28;20447;-67
2023/01/24 08:02:03;;;;;;;12.77;5.87;;;;;;;1.83;86.16;103565.25;5013901;28;20518;-66
2023/01/24 08:04:30;;;;;;;9.80;4.47;;;;;;;1.73;84.63;103568.09;5013680;28;20452;-67
2023/01/24 08:09:37;;;;;;;18.90;6.07;;;;;;;1.72;85.65;103567.25;5011967;28;20898;-67
2023/01/24 08:12:04;;;;;;;15.10;5.00;;;;;;;1.72;86.03;103575.25;5013719;28;20980;-67
2023/01/24 08:14:31;;;;;;;14.50;5.60;;;;;;;1.64;85.83;103577.97;5014086;28;20545;-67
2023/01/24 08:16:57;;;;;;;12.03;4.77;;;;;;;1.74;85.76;103583.94;5014046;28;20530;-67
2023/01/24 08:19:26;;;;;;;13.77;4.63;;;;;;;1.67;84.75;103582.94;5013966;28;20476;-67
2023/01/24 08:21:52;;;;;;;23.23;5.63;;;;;;;1.68;85.73;103575.75;5013592;28;21007;-68
2023/01/24 08:24:19;;;;;;;12.20;4.17;;;;;;;1.65;84.79;103581.47;5013845;28;20490;-65
2023/01/24 08:26:46;;;;;;;12.87;5.00;;;;;;;1.60;85.01;103575.78;5013795;28;20488;-66
2023/01/24 08:29:12;;;;;;;22.83;6.00;;;;;;;1.57;85.55;103576.94;5013451;28;21007;-67
2023/01/24 08:31:39;;;;;;;16.10;5.90;;;;;;;1.65;86.16;103571.59;5013448;28;21005;-67
2023/01/24 08:34:06;;;;;;;10.50;4.77;;;;;;;1.69;86.45;103577.47;5013775;28;20472;-67
2023/01/24 08:36:34;;;;;;;18.20;5.90;;;;;;;1.66;87.35;103577.78;5013386;28;20526;-67
2023/01/24 08:39:00;;;;;;;11.73;4.57;;;;;;;1.72;87.40;103572.59;5013376;28;20449;-67
2023/01/24 08:41:27;;;;;;;15.93;4.90;;;;;;;1.61;86.08;103570.28;5013697;28;20551;-66
2023/01/24 08:43:53;;;;;;;12.77;4.93;;;;;;;1.72;87.30;103575.25;5013460;28;20506;-66
2023/01/24 08:46:20;;;;;;;12.77;4.87;;;;;;;1.81;88.34;103575.25;5013200;28;20855;-67
2023/01/24 08:48:46;;;;;;;15.30;5.70;;;;;;;1.78;87.79;103581.78;5013426;28;20539;-68
2023/01/24 08:51:13;;;;;;;15.03;6.00;;;;;;;1.86;87.42;103578.25;5013346;28;20460;-67
2023/01/24 08:53:41;;;;;;;20.00;5.50;;;;;;;1.85;86.84;103577.41;5013597;28;20479;-67
2023/01/24 08:56:08;;;;;;;25.80;7.07;;;;;;;1.81;87.12;103567.25;5013772;28;20946;-67
2023/01/24 08:58:34;;;;;;;16.30;6.80;;;;;;;1.91;86.60;103573.25;5013661;28;20450;-67
2023/01/24 09:01:01;;;;;;;18.00;6.60;;;;;;;1.94;87.03;103564.88;5013031;28;20466;-67
2023/01/24 09:03:27;;;;;;;15.23;6.57;;;;;;;1.98;86.68;103571.56;5013161;28;20506;-67
2023/01/24 09:05:57;;;;;;;23.83;7.20;;;;;;;1.99;87.19;103573.22;5013295;28;20479;-67
2023/01/24 09:08:23;;;;;;;15.27;6.03;;;;;;;2.03;86.74;103561.19;5013317;28;20451;-67
2023/01/24 09:10:51;;;;;;;15.17;6.93;;;;;;;2.09;86.15;103573.91;5013481;28;20490;-67
2023/01/24 09:13:18;;;;;;;17.13;6.00;;;;;;;2.03;86.92;103574.56;5013236;28;20455;-67
2023/01/24 09:15:45;;;;;;;19.63;7.03;;;;;;;2.11;87.43;103585.25;5014173;28;20443;-67
2023/01/24 09:18:12;;;;;;;19.37;6.50;;;;;;;2.19;87.25;103576.38;5017401;28;20454;-67
2023/01/24 09:20:38;;;;;;;26.80;7.57;;;;;;;2.21;87.54;103579.69;5017170;28;20546;-67
2023/01/24 09:23:08;;;;;;;13.70;6.10;;;;;;;2.41;86.95;103582.84;5017514;28;20439;-68
2023/01/24 09:25:35;;;;;;;27.77;7.20;;;;;;;2.53;86.63;103581.47;5016843;28;20553;-68
2023/01/24 09:28:03;;;;;;;16.93;6.80;;;;;;;2.56;86.50;103581.09;5017120;28;20448;-68
2023/01/24 09:30:29;;;;;;;26.53;7.50;;;;;;;2.55;85.62;103594.66;5016721;28;20985;-70
2023/01/24 09:32:56;;;;;;;19.23;8.23;;;;;;;2.51;86.12;103589.63;5017008;28;20527;-68
2023/01/24 09:35:23;;;;;;;30.83;7.53;;;;;;;2.38;84.28;103593.88;5016916;28;20455;-68
2023/01/24 09:37:52;;;;;;;24.40;7.53;;;;;;;2.39;84.42;103584.81;5016906;28;20527;-68
2023/01/24 09:40:22;;;;;;;23.33;7.87;;;;;;;2.43;83.64;103586.16;5016434;28;20458;-68
2023/01/24 09:42:58;;;;;;;25.53;8.57;;;;;;;2.35;84.43;103583.53;5017302;28;20470;-68
2023/01/24 09:45:31;;;;;;;27.53;8.67;;;;;;;2.25;83.99;103581.03;5016841;28;20424;-68
2023/01/24 09:48:01;;;;;;;27.00;8.80;;;;;;;2.23;83.48;103580.38;5016491;28;20984;-68
2023/01/24 09:50:35;;;;;;;19.03;7.87;;;;;;;2.30;83.78;103580.50;5016647;28;20498;-68
2023/01/24 09:53:02;;;;;;;24.90;7.63;;;;;;;2.40;85.22;103581.16;5016761;28;20430;-68
2023/01/24 09:55:33;;;;;;;23.57;8.37;;;;;;;2.42;85.42;103579.97;5016602;28;20821;-68
2023/01/24 09:58:06;;;;;;;27.07;8.77;;;;;;;2.49;85.71;103580.97;5016291;28;20873;-68
2023/01/24 10:00:37;;;;;;;29.60;9.17;;;;;;;2.60;85.53;103569.03;5016118;28;20475;-68
2023/01/24 10:03:04;;;;;;;28.30;7.63;;;;;;;2.68;85.14;103565.50;5016186;28;20470;-68
2023/01/24 10:05:35;;;;;;;20.07;7.73;;;;;;;2.75;84.39;103574.50;5016437;28;20535;-68
2023/01/24 10:08:21;;;;;;;27.63;8.97;;;;;;;2.78;82.55;103558.91;5016096;28;20463;-69
2023/01/24 10:10:54;;;;;;;22.53;8.87;;;;;;;2.66;82.07;103560.34;5015974;28;20459;-68
2023/01/24 10:14:03;;;;;;;23.10;8.30;;;;;;;2.78;81.60;103550.88;5016270;28;20435;-68
2023/01/24 10:16:52;;;;;;;28.60;8.10;;;;;;;2.72;82.61;103551.59;5005893;28;20452;-68
2023/01/24 10:19:34;;;;;;;26.37;9.50;;;;;;;2.84;82.36;103541.34;5015850;28;20431;-69
2023/01/24 10:22:17;;;;;;;33.20;11.07;;;;;;;2.76;82.08;103544.88;5016263;28;20464;-69
2023/01/24 10:24:53;;;;;;;31.80;10.50;;;;;;;2.73;82.03;103547.91;5015813;28;20519;-69
2023/01/24 10:27:26;;;;;;;28.53;8.50;;;;;;;2.85;81.17;103550.19;5015316;28;20559;-69
2023/01/24 10:29:58;;;;;;;44.33;11.20;;;;;;;2.78;81.39;103545.53;5015968;28;20438;-70
2023/01/24 10:32:32;;;;;;;33.13;10.47;;;;;;;2.81;81.93;103547.03;5015760;28;20479;-69
2023/01/24 10:35:04;;;;;;;37.33;10.27;;;;;;;2.71;82.43;103541.06;5015798;28;20431;-69
2023/01/24 10:37:38;;;;;;;24.30;9.57;;;;;;;2.77;82.87;103541.19;5015821;28;20433;-68
2023/01/24 10:40:12;;;;;;;33.47;9.40;;;;;;;2.84;84.68;103548.53;5015855;28;20431;-68
2023/01/24 10:42:39;;;;;;;28.20;9.70;;;;;;;2.94;83.70;103546.47;5015807;28;20427;-67
2023/01/24 10:45:29;;;;;;;23.60;10.60;;;;;;;2.88;82.08;103550.69;5015427;28;20444;-68
2023/01/24 10:48:01;;;;;;;34.77;9.97;;;;;;;2.81;81.37;103548.88;5015669;28;20541;-68
2023/01/24 10:50:34;;;;;;;33.83;9.57;;;;;;;2.84;82.67;103543.19;5015544;28;20456;-68
2023/01/24 10:53:13;;;;;;;28.73;10.10;;;;;;;2.92;83.01;103541.28;5015694;28;20491;-68
2023/01/24 10:55:40;;;;;;;37.40;10.30;;;;;;;2.87;82.09;103543.63;5015563;28;20524;-68
2023/01/24 10:58:21;;;;;;;39.20;11.93;;;;;;;2.73;82.05;103550.56;5015392;28;20479;-68
2023/01/24 11:00:56;;;;;;;36.40;12.20;;;;;;;2.71;82.72;103549.09;5015260;28;20502;-68
2023/01/24 11:03:27;;;;;;;40.30;11.43;;;;;;;2.81;82.55;103546.19;5015037;28;20549;-68
2023/01/24 11:05:56;;;;;;;52.97;12.63;;;;;;;2.78;83.40;103545.53;5014902;28;21009;-68
2023/01/24 11:08:24;;;;;;;37.10;11.60;;;;;;;2.91;83.55;103550.31;5015239;28;20456;-69
2023/01/24 11:10:55;;;;;;;39.30;12.60;;;;;;;3.03;83.62;103551.59;5015166;28;20491;-68
2023/01/24 11:13:37;;;;;;;38.10;10.53;;;;;;;3.11;83.39;103553.38;5014989;28;20443;-68
2023/01/24 11:16:06;;;;;;;47.57;12.47;;;;;;;2.91;81.44;103549.47;5012948;28;20456;-69
2023/01/24 11:18:36;;;;;;;49.77;13.33;;;;;;;2.91;82.34;103542.28;5016324;28;20472;-69
2023/01/24 11:21:11;;;;;;;38.20;12.00;;;;;;;2.83;81.95;103542.31;5014908;28;20460;-68
2023/01/24 11:23:38;;;;;;;46.23;11.70;;;;;;;2.88;82.43;103541.78;5015005;28;20881;-69
2023/01/24 11:26:07;;;;;;;51.83;10.97;;;;;;;2.84;82.26;103535.16;5014899;28;20439;-68
2023/01/24 11:28:36;;;;;;;36.17;11.07;;;;;;;2.72;81.62;103535.53;5014777;28;20452;-68
2023/01/24 11:31:06;;;;;;;38.10;12.70;;;;;;;2.76;82.17;103533.34;5014720;28;20495;-68
2023/01/24 11:34:08;;;;;;;39.00;11.70;;;;;;;2.77;81.59;103532.34;5014708;28;20448;-68
2023/01/24 11:36:45;;;;;;;60.87;14.27;;;;;;;2.75;82.18;103537.88;5014662;28;20434;-68
2023/01/24 11:39:22;;;;;;;46.20;12.77;;;;;;;2.77;83.12;103529.66;5013524;28;20889;-69
2023/01/24 11:41:56;;;;;;;31.00;10.97;;;;;;;2.97;81.93;103522.84;5014569;28;20547;-69
2023/01/24 11:44:40;;;;;;;40.60;12.57;;;;;;;3.09;80.83;103527.78;5014589;28;20432;-69
2023/01/24 11:47:13;;;;;;;63.13;12.67;;;;;;;3.16;80.62;103518.88;5014477;28;20463;-69
2023/01/24 11:50:28;;;;;;;40.73;12.70;;;;;;;3.18;79.69;103518.69;5014513;28;20432;-69
2023/01/24 11:53:14;;;;;;;38.00;11.83;;;;;;;3.23;80.86;103522.50;4953787;29;20995;-69
2023/01/24 11:55:54;;;;;;;27.07;9.03;;;;;;;3.32;80.72;103522.41;4953853;29;20473;-69
2023/01/24 11:58:35;;;;;;;52.77;12.07;;;;;;;3.38;79.75;103514.50;4953748;29;20900;-69
2023/01/24 12:01:09;;;;;;;38.80;10.33;;;;;;;3.39;79.38;103518.00;4953610;28;20485;-67
2023/01/24 12:04:14;;;;;;;46.37;11.40;;;;;;;3.39;79.57;103515.34;4953999;29;20458;-69
2023/01/24 12:06:49;;;;;;;52.13;12.63;;;;;;;3.50;79.68;103512.25;4939996;29;20581;-70
2023/01/24 12:09:20;;;;;;;33.20;11.63;;;;;;;3.52;79.06;103504.84;4953605;29;20912;-68
2023/01/24 12:11:55;;;;;;;32.40;10.80;;;;;;;3.54;78.47;103511.69;4953475;28;20553;-69